Accueil
METAR-TAF:

METAR-TAF

Aéroports :

Genève, Suisse

Aéroport international de Genève

latitude: 46-15N, longitude: 006-08E, altitude: 420 m

Observation

Le bulletin a été fait il y a 31 minutes, à 01:20 UTC
Vent 5 kt de sud-ouest
Température 18°C
Humidité 77%
Pression 1020 hPa
Visibilité 10 km ou plus
Quelques nuages à une hauteur de 5100 ft
Nuages fragmentés à une hauteur de 5600 ft

METAR: LSGG 190120Z AUTO 22005KT 9999 FEW051 BKN056 18/14 Q1020 NOSIG

Heure: 03:51 (01:51 UTC)

Prévision

Le bulletin a été fait il y a 2 heures et 26 minutes, à 23:25 UTC
Prévision valable du 19 à 00 UTC au 20 à 06 UTC
Vent 5 kt de ouest/sud-ouest
Visibilité 10 km ou plus
Quelques nuages à une hauteur de 4000 ft
Nuages fragmentés à une hauteur de 8000 ft

TAF: LSGG 182325Z 1900/2006 25005KT 9999 FEW040 BKN080 TX23/1915Z TN15/1905Z TN10/2005Z

Observations et prévisions météorologiques de plus de 4000 aéroports (messages METAR et TAF).

Les stations disponibles sont représentées par des disques jaunes et rouges sur la carte.

Passer la souris dessus pour voir le nom de la station.

Cliquer dessus pour voir les observations et prévisions météorologiques.

Pour changer de carte: cliquez sur les boutons verts avec une croix noire pour zoomer, sur le bouton vert avec un tiret pour effectuer un zoom arrière, ou sur les flèches vertes pour les cartes adjacentes.


METAR-TAF: